Time;durP1;ratioP1;P1;durP2;ratioP2;P2;SDS_P1;SDS_P2;PMS_P1;PMS_P2;Temp;Humidity;BMP_temperature;BMP_pressure;BME280_temperature;BME280_humidity;BME280_pressure;Samples;Min_cycle;Max_cycle;Signal;HPM_P1;HPM_P2
2022/09/01 00:01:25;;;;;;;8.93;5.35;;;15.50;99.90;;;;;;5063420;28;20388;-86
2022/09/01 00:03:52;;;;;;;9.85;5.55;;;15.50;99.90;;;;;;5071118;28;20111;-86
2022/09/01 00:06:22;;;;;;;10.10;5.75;;;15.50;99.90;;;;;;5070171;28;20024;-87
2022/09/01 00:08:54;;;;;;;9.52;5.50;;;15.40;99.90;;;;;;5070860;28;20139;-86
2022/09/01 00:11:22;;;;;;;10.40;6.10;;;15.40;99.90;;;;;;5071112;28;20047;-86
2022/09/01 00:13:49;;;;;;;12.77;6.20;;;15.40;99.90;;;;;;5062946;28;20028;-86
2022/09/01 00:16:17;;;;;;;9.60;6.00;;;15.40;99.90;;;;;;5070054;28;20116;-86
2022/09/01 00:18:48;;;;;;;8.57;4.93;;;15.40;99.90;;;;;;5070938;28;20020;-86
2022/09/01 00:21:16;;;;;;;11.38;5.65;;;15.30;99.90;;;;;;5070810;28;20578;-86
2022/09/01 00:23:42;;;;;;;9.43;5.47;;;15.30;99.90;;;;;;5063374;28;20104;-86
2022/09/01 00:26:07;;;;;;;13.23;5.88;;;15.30;99.90;;;;;;5070524;28;20108;-86
2022/09/01 00:28:35;;;;;;;9.77;5.32;;;15.20;99.90;;;;;;5068428;28;20424;-85
2022/09/01 00:31:01;;;;;;;8.77;5.00;;;15.20;99.90;;;;;;5071977;28;20044;-86
2022/09/01 00:33:27;;;;;;;8.75;4.90;;;15.20;99.90;;;;;;5070959;28;20763;-86
2022/09/01 00:35:53;;;;;;;10.38;5.72;;;15.20;99.90;;;;;;5070477;28;20029;-87
2022/09/01 00:38:18;;;;;;;10.88;5.50;;;15.20;99.90;;;;;;5071226;28;20028;-86
2022/09/01 00:40:44;;;;;;;7.60;4.78;;;15.20;99.90;;;;;;5072040;28;20523;-86
2022/09/01 00:43:20;;;;;;;8.70;5.28;;;15.20;99.90;;;;;;5067275;28;20031;-86
2022/09/01 00:45:45;;;;;;;8.25;4.85;;;15.20;99.90;;;;;;5070116;28;20039;-86
2022/09/01 00:48:13;;;;;;;8.82;5.07;;;15.20;99.90;;;;;;5070876;28;20021;-86
2022/09/01 00:50:38;;;;;;;11.93;6.20;;;15.20;99.90;;;;;;5071135;28;20025;-86
2022/09/01 00:53:06;;;;;;;8.65;5.05;;;15.20;99.90;;;;;;5071145;28;20070;-86
2022/09/01 00:55:36;;;;;;;8.85;5.20;;;15.10;99.90;;;;;;5070369;28;20024;-86
2022/09/01 00:58:04;;;;;;;7.85;4.78;;;15.10;99.90;;;;;;5072335;28;20043;-86
2022/09/01 01:00:32;;;;;;;8.85;4.80;;;15.10;99.90;;;;;;5070948;28;20029;-86
2022/09/01 01:02:57;;;;;;;7.22;4.95;;;15.10;99.90;;;;;;5070106;28;20036;-86
2022/09/01 01:05:31;;;;;;;9.68;5.35;;;15.10;99.90;;;;;;5071392;28;20040;-87
2022/09/01 01:08:03;;;;;;;6.68;4.45;;;15.10;99.90;;;;;;5069678;28;20073;-86
2022/09/01 01:10:31;;;;;;;8.23;4.55;;;15.10;99.90;;;;;;5066503;28;20016;-86
2022/09/01 01:13:00;;;;;;;7.78;4.68;;;15.10;99.90;;;;;;5060730;28;20396;-86
2022/09/01 01:15:28;;;;;;;9.60;4.85;;;15.10;99.90;;;;;;5069319;28;20401;-86
2022/09/01 01:17:54;;;;;;;7.40;4.70;;;15.10;99.90;;;;;;5065906;28;20116;-87
2022/09/01 01:23:30;;;;;;;8.73;4.82;;;15.10;99.90;;;;;;5067430;28;20028;-86
2022/09/01 01:25:57;;;;;;;7.57;4.43;;;15.00;99.90;;;;;;5066930;28;20488;-86
2022/09/01 01:28:33;;;;;;;8.60;4.72;;;15.00;99.90;;;;;;5065983;28;20039;-86
2022/09/01 01:31:00;;;;;;;8.38;5.07;;;14.90;99.90;;;;;;5059478;28;20017;-86
2022/09/01 01:33:35;;;;;;;11.38;5.70;;;15.00;99.90;;;;;;5059850;28;20397;-86
2022/09/01 01:36:02;;;;;;;9.18;5.32;;;14.90;99.90;;;;;;5061297;28;20020;-86
2022/09/01 01:38:29;;;;;;;8.70;5.22;;;14.80;99.90;;;;;;5071029;28;20027;-86
2022/09/01 01:40:55;;;;;;;9.10;4.97;;;14.80;99.90;;;;;;5063111;28;20021;-85
2022/09/01 01:43:22;;;;;;;9.52;5.03;;;14.80;99.90;;;;;;5067271;28;20024;-86
2022/09/01 01:45:51;;;;;;;8.48;4.75;;;14.70;99.90;;;;;;5069444;28;20036;-86
2022/09/01 01:48:23;;;;;;;11.05;4.78;;;14.70;99.90;;;;;;5069748;28;20017;-85
2022/09/01 01:50:51;;;;;;;8.82;4.80;;;14.80;99.90;;;;;;5072476;28;20055;-86
2022/09/01 01:53:18;;;;;;;8.43;5.43;;;14.70;99.90;;;;;;5072134;28;20037;-86
2022/09/01 01:55:48;;;;;;;12.45;4.95;;;14.80;99.90;;;;;;5070711;28;20025;-86
2022/09/01 01:58:15;;;;;;;10.05;5.00;;;14.70;99.90;;;;;;5074031;28;20017;-86
2022/09/01 02:00:43;;;;;;;9.63;5.78;;;14.70;99.90;;;;;;5073563;28;20037;-86
2022/09/01 02:03:11;;;;;;;8.68;4.85;;;14.70;99.90;;;;;;5074216;28;20431;-86
2022/09/01 02:05:38;;;;;;;9.88;5.50;;;14.70;99.90;;;;;;5072799;28;20119;-86
2022/09/01 02:08:06;;;;;;;9.20;5.25;;;14.70;99.90;;;;;;5072812;28;20082;-86
2022/09/01 02:10:43;;;;;;;9.10;5.57;;;14.70;99.90;;;;;;5073277;28;20488;-85
2022/09/01 02:13:15;;;;;;;7.63;4.75;;;14.60;99.90;;;;;;5065849;28;20485;-86
2022/09/01 02:15:52;;;;;;;8.60;4.50;;;14.60;99.90;;;;;;5070354;28;20055;-86
2022/09/01 02:18:40;;;;;;;8.60;5.28;;;14.50;99.90;;;;;;5067534;28;20025;-86
2022/09/01 02:21:09;;;;;;;10.15;5.45;;;14.50;99.90;;;;;;5064002;28;20497;-86
2022/09/01 02:23:37;;;;;;;9.82;5.30;;;14.40;99.90;;;;;;5069323;28;20368;-85
2022/09/01 02:26:05;;;;;;;9.75;5.20;;;14.40;99.90;;;;;;5065774;28;20036;-86
2022/09/01 02:28:35;;;;;;;9.23;5.22;;;14.40;99.90;;;;;;5066325;28;20013;-85
2022/09/01 02:31:02;;;;;;;8.40;4.90;;;14.30;99.90;;;;;;5063124;28;20017;-86
2022/09/01 02:33:29;;;;;;;9.98;5.55;;;14.40;99.90;;;;;;5068184;28;20036;-86
2022/09/01 02:35:58;;;;;;;10.50;5.80;;;14.40;99.90;;;;;;5065565;28;20482;-85
2022/09/01 02:38:26;;;;;;;8.70;5.07;;;14.40;99.90;;;;;;5072843;28;20028;-85
2022/09/01 02:40:52;;;;;;;9.00;5.32;;;14.30;99.90;;;;;;5074180;28;20016;-86
2022/09/01 02:43:19;;;;;;;10.30;5.55;;;14.40;99.90;;;;;;5072372;28;20055;-86
2022/09/01 02:45:54;;;;;;;10.07;5.57;;;14.40;99.90;;;;;;5073765;28;20025;-86
2022/09/01 02:48:23;;;;;;;9.50;5.75;;;14.40;99.90;;;;;;5073750;28;20047;-85
2022/09/01 02:50:49;;;;;;;8.77;5.28;;;14.40;99.90;;;;;;5066486;28;20612;-86
2022/09/01 02:53:15;;;;;;;10.88;6.10;;;14.40;99.90;;;;;;5073546;28;20025;-85
2022/09/01 02:55:42;;;;;;;12.65;6.20;;;14.40;99.90;;;;;;5073542;28;20104;-85
2022/09/01 02:58:12;;;;;;;10.95;5.78;;;14.40;99.90;;;;;;5072655;28;20036;-86
2022/09/01 03:00:38;;;;;;;10.00;5.90;;;14.40;99.90;;;;;;5070155;28;20028;-85
2022/09/01 03:03:06;;;;;;;12.05;5.47;;;14.50;99.90;;;;;;5060461;28;20401;-86
2022/09/01 03:05:33;;;;;;;11.07;6.32;;;14.50;99.90;;;;;;5073072;28;20070;-85
2022/09/01 03:08:06;;;;;;;11.05;5.65;;;14.40;99.90;;;;;;5072297;28;20107;-86
2022/09/01 03:10:40;;;;;;;11.00;6.25;;;14.50;99.90;;;;;;5072557;28;20021;-85
2022/09/01 03:13:15;;;;;;;11.70;6.00;;;14.50;99.90;;;;;;5069179;28;20029;-86
2022/09/01 03:15:42;;;;;;;10.77;5.75;;;14.50;99.90;;;;;;5073313;28;21309;-86
2022/09/01 03:18:10;;;;;;;8.95;5.63;;;14.40;99.90;;;;;;5073590;28;20033;-85
2022/09/01 03:20:41;;;;;;;9.55;5.30;;;14.40;99.90;;;;;;5073029;28;20029;-86
2022/09/01 03:23:07;;;;;;;12.18;5.50;;;14.40;99.90;;;;;;5073527;28;20115;-86
2022/09/01 03:25:35;;;;;;;10.25;5.53;;;14.40;99.90;;;;;;5072709;28;20039;-86
2022/09/01 03:28:01;;;;;;;10.13;5.75;;;14.40;99.90;;;;;;5071912;28;20028;-86
2022/09/01 03:30:34;;;;;;;9.48;5.55;;;14.40;99.90;;;;;;5072640;28;20029;-86
2022/09/01 03:33:01;;;;;;;10.32;5.68;;;14.40;99.90;;;;;;5071095;28;20472;-86
2022/09/01 03:35:30;;;;;;;9.63;5.28;;;14.40;99.90;;;;;;5066955;28;20036;-86
2022/09/01 03:37:57;;;;;;;9.02;5.57;;;14.40;99.90;;;;;;5071153;28;20027;-86
2022/09/01 03:40:26;;;;;;;10.23;5.70;;;14.20;99.90;;;;;;5071963;28;20025;-86
2022/09/01 03:42:53;;;;;;;10.65;6.10;;;14.40;99.90;;;;;;5071791;28;20033;-85
2022/09/01 03:45:19;;;;;;;11.73;5.68;;;14.40;99.90;;;;;;5070943;28;20020;-86
2022/09/01 03:47:45;;;;;;;12.05;6.63;;;14.40;99.90;;;;;;5070696;28;20081;-86
2022/09/01 03:50:19;;;;;;;11.48;6.10;;;14.40;99.90;;;;;;5072609;28;20123;-86
2022/09/01 03:52:52;;;;;;;10.55;5.90;;;14.30;99.90;;;;;;5065118;28;20035;-85
2022/09/01 03:55:23;;;;;;;11.57;5.85;;;14.30;99.90;;;;;;5062806;28;20013;-85
2022/09/01 03:58:02;;;;;;;11.45;5.82;;;14.20;99.90;;;;;;5067573;28;20092;-86
2022/09/01 04:00:28;;;;;;;11.82;6.47;;;14.30;99.90;;;;;;5071660;28;20445;-86
2022/09/01 04:02:57;;;;;;;8.82;5.40;;;14.20;99.90;;;;;;5069274;28;20530;-86
2022/09/01 04:05:29;;;;;;;11.32;6.05;;;14.20;99.90;;;;;;5071297;28;20481;-86
2022/09/01 04:07:56;;;;;;;11.07;6.22;;;14.20;99.90;;;;;;5072966;28;20021;-85
2022/09/01 04:10:23;;;;;;;10.88;5.93;;;14.10;99.90;;;;;;5088442;28;20111;-85
2022/09/01 04:12:49;;;;;;;11.70;6.65;;;14.10;99.90;;;;;;5083882;28;20666;-86
2022/09/01 04:15:16;;;;;;;12.43;6.78;;;14.20;99.90;;;;;;5071149;28;20025;-85
2022/09/01 04:20:30;;;;;;;10.05;5.13;;;14.20;99.90;;;;;;5075869;28;20055;-86
2022/09/01 04:23:09;;;;;;;13.18;5.97;;;14.20;99.90;;;;;;5072699;28;20508;-86
2022/09/01 04:25:37;;;;;;;10.73;5.38;;;14.20;99.90;;;;;;5073682;28;20500;-86
2022/09/01 04:28:11;;;;;;;11.13;5.70;;;14.20;99.90;;;;;;5072405;28;20090;-87
2022/09/01 04:30:39;;;;;;;12.10;6.03;;;14.20;99.90;;;;;;5071207;28;20550;-86
2022/09/01 04:33:06;;;;;;;11.38;6.13;;;14.20;99.90;;;;;;5070500;28;20027;-86
2022/09/01 04:35:36;;;;;;;10.93;5.97;;;14.20;99.90;;;;;;5101813;22;20071;-82
2022/09/01 04:38:02;;;;;;;11.32;5.97;;;14.20;99.90;;;;;;5087895;28;20143;-82
2022/09/01 04:40:28;;;;;;;12.18;6.05;;;14.20;99.90;;;;;;5086910;28;20031;-82
2022/09/01 04:42:53;;;;;;;10.57;5.57;;;14.20;99.90;;;;;;5080210;28;20028;-82
2022/09/01 04:45:21;;;;;;;10.43;5.60;;;14.20;99.90;;;;;;5076127;28;20023;-82
2022/09/01 04:47:47;;;;;;;10.82;5.85;;;14.20;99.90;;;;;;5083965;28;20017;-82
2022/09/01 04:50:16;;;;;;;10.98;5.38;;;14.20;99.90;;;;;;5083913;28;20020;-82
2022/09/01 04:52:43;;;;;;;10.27;5.55;;;14.20;99.90;;;;;;5088274;28;20020;-82
2022/09/01 04:55:16;;;;;;;9.40;5.05;;;14.20;99.90;;;;;;5091838;28;20019;-81
2022/09/01 04:57:46;;;;;;;9.95;5.57;;;14.30;99.90;;;;;;5082360;28;20402;-82
2022/09/01 05:00:21;;;;;;;10.15;5.22;;;14.30;99.90;;;;;;5086232;28;20059;-82
2022/09/01 05:02:48;;;;;;;11.52;5.47;;;14.40;99.90;;;;;;5092226;28;20008;-82
2022/09/01 05:05:14;;;;;;;9.23;4.78;;;14.40;99.90;;;;;;5090484;28;20027;-82
2022/09/01 05:07:39;;;;;;;9.82;5.15;;;14.50;99.90;;;;;;5081983;28;20029;-82
2022/09/01 05:10:05;;;;;;;9.07;5.05;;;14.50;99.90;;;;;;5088346;28;20060;-82
2022/09/01 05:12:31;;;;;;;8.65;4.80;;;14.50;99.90;;;;;;5089667;28;20022;-82
2022/09/01 05:14:57;;;;;;;8.77;5.05;;;14.60;99.90;;;;;;5088569;28;20028;-82
2022/09/01 05:17:28;;;;;;;8.80;4.90;;;14.70;99.90;;;;;;5090542;28;20083;-82
2022/09/01 05:19:55;;;;;;;9.13;4.93;;;14.70;99.90;;;;;;5091090;28;20012;-82
2022/09/01 05:22:21;;;;;;;8.73;4.68;;;14.80;99.90;;;;;;5086242;28;20039;-82
2022/09/01 05:24:50;;;;;;;8.93;5.05;;;14.70;99.90;;;;;;5075834;28;20020;-82
2022/09/01 05:27:17;;;;;;;8.18;4.47;;;14.80;99.90;;;;;;5085302;28;20061;-82
2022/09/01 05:29:45;;;;;;;8.55;4.57;;;14.90;99.90;;;;;;5086821;28;20399;-82
2022/09/01 05:32:11;;;;;;;8.73;4.38;;;14.90;99.90;;;;;;5084470;28;20527;-82
2022/09/01 05:34:38;;;;;;;7.75;4.18;;;14.90;99.90;;;;;;5086789;28;20044;-82
2022/09/01 05:37:07;;;;;;;6.75;4.20;;;15.00;99.90;;;;;;5090867;28;20020;-82
2022/09/01 05:39:35;;;;;;;8.50;4.35;;;15.10;99.90;;;;;;5091278;28;20357;-82
2022/09/01 05:42:03;;;;;;;9.07;4.38;;;15.00;99.90;;;;;;5087669;28;20024;-82
2022/09/01 05:44:29;;;;;;;7.35;4.25;;;15.00;99.90;;;;;;5090404;28;20016;-82
2022/09/01 05:46:58;;;;;;;8.10;4.47;;;15.00;99.90;;;;;;5091936;28;20388;-82
2022/09/01 05:49:25;;;;;;;8.20;4.40;;;15.00;99.90;;;;;;5083644;28;20024;-82
2022/09/01 05:51:54;;;;;;;8.82;4.85;;;15.00;99.90;;;;;;5091338;28;20047;-82
2022/09/01 05:54:24;;;;;;;9.85;5.07;;;15.00;99.90;;;;;;5089251;28;20024;-82
2022/09/01 05:56:52;;;;;;;9.35;4.85;;;15.00;99.90;;;;;;5092229;28;20026;-82
2022/09/01 05:59:19;;;;;;;9.23;5.25;;;15.00;99.90;;;;;;5090696;28;20028;-82
2022/09/01 06:01:46;;;;;;;8.68;4.57;;;15.00;99.90;;;;;;5093203;28;20111;-82
2022/09/01 06:04:12;;;;;;;9.07;4.95;;;14.90;99.90;;;;;;5091758;28;20020;-81
2022/09/01 06:06:45;;;;;;;10.45;5.32;;;15.00;99.90;;;;;;5091376;28;20023;-82
2022/09/01 06:09:13;;;;;;;9.25;4.72;;;15.10;99.90;;;;;;5092885;28;20115;-82
2022/09/01 06:11:39;;;;;;;8.45;4.30;;;15.20;99.90;;;;;;5092632;28;20020;-82
2022/09/01 06:14:07;;;;;;;9.90;5.55;;;15.20;99.90;;;;;;5092196;28;20020;-82
2022/09/01 06:16:34;;;;;;;9.18;5.15;;;15.30;99.90;;;;;;5088781;28;20024;-82
2022/09/01 06:19:00;;;;;;;10.70;5.03;;;15.40;99.90;;;;;;5090523;28;20016;-82
2022/09/01 06:21:27;;;;;;;8.77;5.65;;;15.40;99.90;;;;;;5092388;28;20111;-82
2022/09/01 06:23:55;;;;;;;9.30;4.63;;;15.50;99.90;;;;;;5092894;28;20107;-82
2022/09/01 06:26:25;;;;;;;9.82;5.40;;;15.50;99.90;;;;;;5091362;28;20025;-82
2022/09/01 06:28:53;;;;;;;11.73;5.25;;;15.60;99.90;;;;;;5091443;28;20054;-82
2022/09/01 06:31:24;;;;;;;10.27;5.07;;;15.70;99.90;;;;;;5091168;28;20021;-82
2022/09/01 06:33:54;;;;;;;11.52;5.10;;;15.70;99.90;;;;;;5088672;28;20529;-83
2022/09/01 06:36:22;;;;;;;9.30;4.80;;;15.80;99.90;;;;;;5091799;28;20128;-82
2022/09/01 06:38:50;;;;;;;10.20;5.10;;;15.80;99.90;;;;;;5091421;28;20438;-82
2022/09/01 06:41:18;;;;;;;7.57;4.35;;;15.90;99.90;;;;;;5093198;28;20364;-81
2022/09/01 06:43:46;;;;;;;8.38;4.78;;;15.90;99.90;;;;;;5090767;28;20404;-82
2022/09/01 06:46:11;;;;;;;8.32;4.40;;;15.90;99.90;;;;;;5092917;28;20047;-82
2022/09/01 06:48:45;;;;;;;8.55;4.85;;;16.00;99.90;;;;;;5093362;28;20048;-82
2022/09/01 06:51:17;;;;;;;8.75;4.50;;;16.00;99.90;;;;;;5093753;28;20430;-82
2022/09/01 06:53:44;;;;;;;9.23;4.68;;;16.10;99.90;;;;;;5095613;28;20416;-83
2022/09/01 06:56:12;;;;;;;9.07;4.53;;;16.20;99.90;;;;;;5089033;28;20024;-82
2022/09/01 06:58:40;;;;;;;8.82;4.15;;;16.20;99.90;;;;;;5093222;28;20387;-82
2022/09/01 07:01:14;;;;;;;9.65;4.80;;;16.30;99.90;;;;;;5095511;28;20031;-82
2022/09/01 07:03:46;;;;;;;8.02;4.10;;;16.30;99.90;;;;;;5090343;28;20051;-82
2022/09/01 07:06:14;;;;;;;6.45;3.55;;;16.40;99.90;;;;;;5092300;28;20426;-82
2022/09/01 07:08:48;;;;;;;7.35;4.00;;;16.60;99.90;;;;;;5087830;28;20040;-82
2022/09/01 07:11:24;;;;;;;6.65;3.47;;;16.90;99.90;;;;;;5088141;28;20031;-82
2022/09/01 07:13:52;;;;;;;7.30;3.60;;;17.20;99.90;;;;;;5091308;28;20800;-82
2022/09/01 07:16:21;;;;;;;6.72;3.30;;;17.30;99.90;;;;;;5092113;28;20024;-83
2022/09/01 07:18:48;;;;;;;6.55;3.88;;;17.40;99.90;;;;;;5084100;28;20430;-83
2022/09/01 07:21:14;;;;;;;6.30;3.47;;;17.40;99.90;;;;;;5088032;28;20034;-83
2022/09/01 07:23:42;;;;;;;5.85;3.15;;;17.50;99.90;;;;;;5090806;28;20024;-83
2022/09/01 07:26:09;;;;;;;5.90;3.20;;;17.70;99.90;;;;;;5084617;28;20423;-83
2022/09/01 07:28:34;;;;;;;6.68;3.00;;;17.70;99.90;;;;;;5091923;28;20020;-83
2022/09/01 07:31:00;;;;;;;7.30;3.53;;;17.80;99.90;;;;;;5090415;28;20024;-83
2022/09/01 07:33:26;;;;;;;10.63;3.83;;;17.90;99.90;;;;;;5090171;28;20043;-83
2022/09/01 07:35:54;;;;;;;7.05;3.58;;;17.90;99.90;;;;;;5089504;28;20115;-83
2022/09/01 07:38:20;;;;;;;7.20;3.88;;;18.00;99.90;;;;;;5090008;28;20445;-83
2022/09/01 07:40:46;;;;;;;8.32;3.90;;;18.00;99.90;;;;;;5089982;28;20488;-84
2022/09/01 07:43:23;;;;;;;8.50;3.83;;;17.90;99.90;;;;;;5090325;28;20021;-83
2022/09/01 07:45:54;;;;;;;7.00;3.80;;;17.90;99.90;;;;;;5091012;28;20434;-82
2022/09/01 07:48:21;;;;;;;7.07;3.77;;;17.80;99.90;;;;;;5085497;28;20032;-83
2022/09/01 07:50:51;;;;;;;9.60;4.82;;;17.90;99.90;;;;;;5083565;28;20042;-83
2022/09/01 07:53:21;;;;;;;8.25;4.07;;;17.90;99.90;;;;;;5085827;28;20103;-83
2022/09/01 07:55:50;;;;;;;8.07;4.00;;;18.00;99.90;;;;;;5085345;28;20063;-83
2022/09/01 07:58:18;;;;;;;7.38;4.13;;;18.10;99.90;;;;;;5092209;28;20434;-83
2022/09/01 08:00:48;;;;;;;8.20;4.07;;;18.10;99.90;;;;;;5090451;28;20035;-83
2022/09/01 08:03:15;;;;;;;7.63;4.50;;;18.10;99.90;;;;;;5085609;28;20469;-83
2022/09/01 08:05:42;;;;;;;9.30;4.13;;;18.10;99.90;;;;;;5091648;28;20016;-83
2022/09/01 08:08:08;;;;;;;6.60;3.55;;;18.20;99.90;;;;;;5090930;28;20487;-83
2022/09/01 08:10:37;;;;;;;8.15;3.67;;;18.20;99.90;;;;;;5092024;28;20020;-83
2022/09/01 08:13:02;;;;;;;7.55;4.32;;;18.20;99.90;;;;;;5089682;28;20028;-83
2022/09/01 08:15:28;;;;;;;7.97;4.18;;;18.20;99.90;;;;;;5091329;28;20542;-84
2022/09/01 08:17:53;;;;;;;8.20;4.57;;;18.20;99.90;;;;;;5082554;28;20027;-83
2022/09/01 08:20:19;;;;;;;7.10;3.75;;;18.30;99.90;;;;;;5091826;28;20024;-83
2022/09/01 08:22:45;;;;;;;7.80;3.70;;;18.20;99.90;;;;;;5084817;28;20027;-83
2022/09/01 08:25:10;;;;;;;7.25;4.20;;;18.20;99.90;;;;;;5086739;28;20039;-83
2022/09/01 08:27:40;;;;;;;7.88;4.00;;;18.30;99.90;;;;;;5090525;28;20388;-83
2022/09/01 08:30:09;;;;;;;8.13;4.43;;;18.30;99.90;;;;;;5092333;28;20564;-83
2022/09/01 08:32:35;;;;;;;7.30;3.60;;;18.40;99.90;;;;;;5092347;28;20024;-83
2022/09/01 08:35:03;;;;;;;9.57;3.92;;;18.40;99.90;;;;;;5092969;28;20028;-83
2022/09/01 08:37:29;;;;;;;7.55;3.75;;;18.50;99.90;;;;;;5094220;28;20468;-83
2022/09/01 08:39:55;;;;;;;6.68;3.50;;;18.60;99.90;;;;;;5092186;28;20020;-83
2022/09/01 08:42:30;;;;;;;5.90;3.38;;;18.70;99.90;;;;;;5088887;28;20107;-82
2022/09/01 08:45:11;;;;;;;6.47;3.58;;;18.70;99.90;;;;;;5084668;28;20016;-82
2022/09/01 08:47:37;;;;;;;8.25;3.67;;;18.80;99.90;;;;;;5088179;28;20496;-82
2022/09/01 08:50:04;;;;;;;6.65;3.40;;;18.80;99.90;;;;;;5094841;28;20024;-82
2022/09/01 08:52:37;;;;;;;6.00;3.58;;;18.70;99.90;;;;;;5088749;28;20016;-82
2022/09/01 08:55:30;;;;;;;7.22;3.35;;;18.60;99.90;;;;;;5082750;28;20051;-82
2022/09/01 08:57:59;;;;;;;5.85;3.08;;;18.50;99.90;;;;;;5080913;28;20103;-82
2022/09/01 09:00:35;;;;;;;7.75;3.10;;;18.50;99.90;;;;;;5086616;28;20483;-82
2022/09/01 09:03:04;;;;;;;5.30;2.90;;;18.60;99.90;;;;;;5086259;28;20028;-82
2022/09/01 09:05:49;;;;;;;5.65;2.95;;;18.60;99.90;;;;;;5090693;28;20075;-83
2022/09/01 09:08:54;;;;;;;6.90;3.00;;;18.70;99.90;;;;;;5090564;28;20026;-82
2022/09/01 09:11:50;;;;;;;6.07;2.85;;;18.90;99.90;;;;;;5088955;28;20016;-82
2022/09/01 09:14:25;;;;;;;5.55;2.67;;;19.10;99.90;;;;;;5084411;28;20035;-82
2022/09/01 09:16:56;;;;;;;4.22;2.33;;;19.10;99.90;;;;;;5089761;28;20035;-82
2022/09/01 09:19:27;;;;;;;5.55;2.58;;;19.10;99.90;;;;;;5091099;28;20024;-82
2022/09/01 09:21:55;;;;;;;7.93;3.20;;;19.10;99.90;;;;;;5087736;28;20020;-83
2022/09/01 09:24:51;;;;;;;6.65;3.10;;;19.20;99.90;;;;;;5089489;28;20050;-82
2022/09/01 09:27:29;;;;;;;5.90;2.78;;;19.20;99.90;;;;;;5088699;28;20126;-83
2022/09/01 09:29:58;;;;;;;5.75;3.03;;;19.20;99.90;;;;;;5082906;28;20078;-82
2022/09/01 09:32:46;;;;;;;5.07;2.63;;;19.30;99.90;;;;;;5086690;28;20108;-82
2022/09/01 09:35:23;;;;;;;5.05;2.78;;;19.40;99.90;;;;;;5089897;28;20090;-82
2022/09/01 09:37:49;;;;;;;4.45;2.30;;;19.50;99.90;;;;;;5085671;28;20024;-82
2022/09/01 09:40:22;;;;;;;5.55;2.40;;;19.50;99.90;;;;;;5089670;28;20081;-82
2022/09/01 09:42:53;;;;;;;4.93;2.47;;;19.40;99.90;;;;;;5081599;28;20085;-82
2022/09/01 09:45:38;;;;;;;5.40;2.75;;;19.40;99.90;;;;;;5085231;28;20086;-82
2022/09/01 09:48:24;;;;;;;4.78;2.50;;;19.50;99.90;;;;;;5083220;28;20508;-82
2022/09/01 09:50:50;;;;;;;3.55;1.88;;;19.40;99.90;;;;;;5080501;28;20017;-82
2022/09/01 09:53:33;;;;;;;4.85;2.03;;;19.60;99.90;;;;;;5089208;28;20043;-82
2022/09/01 09:56:03;;;;;;;3.42;1.77;;;19.60;99.90;;;;;;5085214;28;20024;-83
2022/09/01 09:58:39;;;;;;;3.85;2.13;;;19.80;99.90;;;;;;5082707;28;20016;-82
2022/09/01 10:01:14;;;;;;;4.63;1.80;;;20.00;99.90;;;;;;5087054;28;20016;-82
2022/09/01 10:03:50;;;;;;;3.63;1.83;;;20.00;99.90;;;;;;5088532;28;20016;-82
2022/09/01 10:06:32;;;;;;;3.47;1.38;;;20.10;99.90;;;;;;5088775;28;20020;-82
2022/09/01 10:09:02;;;;;;;2.70;1.42;;;20.00;99.90;;;;;;5085812;28;20016;-82
2022/09/01 10:11:30;;;;;;;2.05;1.15;;;20.00;99.90;;;;;;5094173;28;20103;-82
2022/09/01 10:13:56;;;;;;;2.05;1.10;;;20.00;99.90;;;;;;5090960;28;20065;-83
2022/09/01 10:16:30;;;;;;;2.70;1.30;;;20.10;99.90;;;;;;5092961;28;20058;-82
2022/09/01 10:18:59;;;;;;;2.25;1.00;;;20.30;99.90;;;;;;5092537;28;20048;-83
2022/09/01 10:21:37;;;;;;;3.15;1.23;;;20.50;99.90;;;;;;5085915;28;20021;-82
2022/09/01 10:24:28;;;;;;;3.25;1.50;;;20.60;99.90;;;;;;5085780;28;20016;-82
2022/09/01 10:26:59;;;;;;;2.50;1.20;;;20.60;99.90;;;;;;5093341;28;20058;-83
2022/09/01 10:29:39;;;;;;;2.72;1.33;;;20.60;99.90;;;;;;5094057;28;20102;-82
2022/09/01 10:32:09;;;;;;;2.13;1.23;;;20.50;99.90;;;;;;5091111;28;20013;-82
2022/09/01 10:34:37;;;;;;;2.70;1.10;;;20.60;99.90;;;;;;5102832;22;20043;-88
2022/09/01 10:37:05;;;;;;;2.72;1.30;;;20.70;99.90;;;;;;5047610;28;20037;-86
2022/09/01 10:39:34;;;;;;;2.42;1.35;;;20.90;99.90;;;;;;5057575;28;20480;-87
2022/09/01 10:42:18;;;;;;;3.95;1.50;;;20.80;99.90;;;;;;5058137;28;20025;-86
2022/09/01 10:45:18;;;;;;;2.63;1.25;;;20.90;99.90;;;;;;5057355;28;20021;-87
2022/09/01 10:47:44;;;;;;;2.60;1.23;;;21.00;99.90;;;;;;5022517;28;20037;-88
2022/09/01 10:50:31;;;;;;;2.95;1.27;;;21.20;99.90;;;;;;5048166;28;20036;-88
2022/09/01 10:53:32;;;;;;;2.42;1.20;;;21.00;99.90;;;;;;5046366;28;20086;-87
2022/09/01 10:56:20;;;;;;;2.88;1.50;;;21.00;99.90;;;;;;5064155;28;20452;-88
2022/09/01 10:59:04;;;;;;;2.08;1.15;;;21.20;99.90;;;;;;5056176;28;20104;-88
2022/09/01 11:02:14;;;;;;;1.30;0.77;;;21.30;99.90;;;;;;5059094;28;20108;-87
2022/09/01 11:04:40;;;;;;;2.70;1.10;;;21.80;99.90;;;;;;5058239;28;20025;-88
2022/09/01 11:07:18;;;;;;;2.65;1.00;;;22.40;99.90;;;;;;5069223;28;20024;-88
2022/09/01 11:10:19;;;;;;;2.42;1.38;;;22.60;99.90;;;;;;5062398;28;20092;-88
2022/09/01 11:13:09;;;;;;;2.60;0.80;;;22.40;99.90;;;;;;5058663;28;20047;-87
2022/09/01 11:15:39;;;;;;;3.33;1.17;;;22.00;99.90;;;;;;5062178;28;20377;-88
2022/09/01 11:18:30;;;;;;;1.58;0.80;;;21.90;99.90;;;;;;5054777;28;20032;-87
2022/09/01 11:21:15;;;;;;;2.42;1.17;;;22.20;99.90;;;;;;5048821;28;20029;-87
2022/09/01 11:23:40;;;;;;;3.13;1.25;;;22.40;99.90;;;;;;5062625;28;20044;-87
2022/09/01 11:26:31;;;;;;;2.17;0.85;;;22.60;99.90;;;;;;5068892;28;20370;-88
2022/09/01 11:28:57;;;;;;;1.75;0.98;;;22.90;99.90;;;;;;5059810;28;20021;-88
2022/09/01 11:31:36;;;;;;;2.63;1.33;;;22.70;99.90;;;;;;5045869;28;20029;-88
2022/09/01 11:34:19;;;;;;;2.30;1.15;;;22.40;99.90;;;;;;5066883;28;20029;-88
2022/09/01 11:36:54;;;;;;;2.60;1.17;;;22.40;99.90;;;;;;5050717;28;20035;-88
2022/09/01 11:39:38;;;;;;;2.85;1.20;;;22.50;99.90;;;;;;5062181;28;20021;-87
2022/09/01 11:42:20;;;;;;;1.70;0.98;;;22.80;99.90;;;;;;5051624;28;20021;-87
2022/09/01 11:45:02;;;;;;;2.15;1.10;;;23.30;99.90;;;;;;5053110;28;20036;-88
2022/09/01 11:47:32;;;;;;;2.42;1.20;;;23.60;99.90;;;;;;5068055;28;20029;-88
2022/09/01 11:50:02;;;;;;;1.88;0.98;;;23.90;99.90;;;;;;5045737;28;20016;-87
2022/09/01 11:52:31;;;;;;;2.45;1.10;;;24.30;99.90;;;;;;5057991;28;20456;-88
2022/09/01 11:54:58;;;;;;;2.28;1.20;;;24.30;99.90;;;;;;5055174;28;20032;-88
2022/09/01 11:57:34;;;;;;;2.75;1.10;;;24.40;99.90;;;;;;5056070;28;20036;-87
2022/09/01 12:00:05;;;;;;;3.40;1.40;;;24.40;99.90;;;;;;5055067;28;20430;-88
2022/09/01 12:02:34;;;;;;;2.83;0.90;;;24.40;99.90;;;;;;5058010;28;20022;-87
2022/09/01 12:05:03;;;;;;;1.75;0.95;;;24.60;99.90;;;;;;5058816;28;20086;-87
2022/09/01 12:07:36;;;;;;;4.95;1.20;;;24.70;99.90;;;;;;5057863;28;20017;-86
2022/09/01 12:10:03;;;;;;;2.03;1.00;;;24.70;99.90;;;;;;5064310;28;20045;-87
2022/09/01 12:12:37;;;;;;;1.70;0.90;;;24.50;99.90;;;;;;5055059;28;20017;-87
2022/09/01 12:15:29;;;;;;;2.38;1.02;;;24.60;99.40;;;;;;5072750;28;20037;-86
2022/09/01 12:18:11;;;;;;;3.45;1.00;;;24.50;99.60;;;;;;5053342;28;20075;-86
2022/09/01 12:20:37;;;;;;;1.20;0.68;;;25.10;99.90;;;;;;5056301;28;20032;-86
2022/09/01 12:23:11;;;;;;;1.85;0.82;;;25.20;99.10;;;;;;5057323;28;20026;-86
2022/09/01 12:25:37;;;;;;;1.67;0.73;;;25.00;99.40;;;;;;5055857;28;20587;-87
2022/09/01 12:28:06;;;;;;;2.15;0.98;;;25.10;99.90;;;;;;5062121;28;20485;-86
2022/09/01 12:30:34;;;;;;;1.95;0.95;;;25.30;99.20;;;;;;5057408;28;20082;-87
2022/09/01 12:33:03;;;;;;;2.55;1.20;;;25.50;99.00;;;;;;5046558;28;20021;-86
2022/09/01 12:35:29;;;;;;;2.00;0.85;;;25.20;98.10;;;;;;5055225;28;20020;-87
2022/09/01 12:38:19;;;;;;;2.97;0.88;;;25.40;98.60;;;;;;5055687;28;20025;-86
2022/09/01 12:40:50;;;;;;;2.47;1.02;;;24.90;99.90;;;;;;5051646;28;20032;-86
2022/09/01 12:43:31;;;;;;;1.75;0.90;;;24.50;99.90;;;;;;5061467;28;20032;-87
2022/09/01 12:45:59;;;;;;;2.10;1.10;;;24.00;99.90;;;;;;5061503;28;20091;-86
2022/09/01 12:48:31;;;;;;;1.60;0.95;;;23.80;99.90;;;;;;5047696;28;20017;-86
2022/09/01 12:50:59;;;;;;;2.47;1.05;;;23.30;99.90;;;;;;5054762;28;20053;-87
2022/09/01 12:53:28;;;;;;;2.35;1.00;;;23.00;99.90;;;;;;5055945;28;20028;-86
2022/09/01 12:56:03;;;;;;;2.55;0.90;;;22.80;99.90;;;;;;5051949;28;20055;-86
2022/09/01 12:58:30;;;;;;;2.25;0.90;;;22.60;99.90;;;;;;5058022;28;20068;-86
2022/09/01 13:01:07;;;;;;;2.40;0.90;;;23.10;99.90;;;;;;5064022;28;20017;-86
2022/09/01 13:03:33;;;;;;;2.50;1.00;;;23.40;99.90;;;;;;5056542;28;20028;-86
2022/09/01 13:06:02;;;;;;;1.88;0.77;;;23.30;99.90;;;;;;5057001;28;20017;-86
2022/09/01 13:08:31;;;;;;;1.58;0.88;;;23.30;99.90;;;;;;5048064;28;20044;-86
2022/09/01 13:11:06;;;;;;;1.73;0.80;;;23.20;99.90;;;;;;5049478;28;20025;-85